Warren, PA (16365)

10:58 AM EST on February 09, 2016 (GMT -0500)
North Warren | | Change Station
CLOSE
Current Station
Personal Weather Station
Location: Warren, PA
Elevation: 1276 ft
Nearby Weather Stations

Elev 1276 ft 41.88 °N, 79.17 °W | Updated 2 seconds ago

Overcast
Overcast
33.0 °F
Feels Like 33 °F
N
0.0
Wind Variable Wind from SSW
Gusts 6.0 mph

Today
High -- | Low -- °F
--% Chance of Precip.
Yesterday
High -- | Low -- °F
Precip. -- in
Pressure 29.49 in
Visibility 10.0 miles
Clouds Scattered Clouds 1100 ft
Overcast 3000 ft
Windchill 33 °F
Dew Point 33 °F
Humidity 99%
Rainfall 0.02 in
Snow Depth Not available.
7:20 AM 5:41 PM
New Moon, 1% visible
METAR KJHW 091555Z AUTO 22004KT 10SM SCT011 OVC030 M01/M03 A2949 RMK AO1
Pressure 29.49 in
Visibility 10.0 miles
Clouds Scattered Clouds 1100 ft
Overcast 3000 ft
Windchill 33 °F
Dew Point 33 °F
Humidity 99%
Rainfall 0.02 in
Snow Depth Not available.
7:20 AM 5:41 PM
New Moon, 1% visible
METAR KJHW 091555Z AUTO 22004KT 10SM SCT011 OVC030 M01/M03 A2949 RMK AO1

10-Day Weather Forecast

Almanac

Astronomy

Feb. 09, 2016 Rise Set
Actual Time
Civil Twilight
Nautical Twilight
Astronomical Twilight
Moon
Length of Visible Light
Length of Day
Tomorrow will be .
, % of the Moon is Illuminated

Today's Extremes

State Highs State Lows

Community

WunderPhotos

Upload Photos

1,891,628 photos uploaded!

WunderBlog® & News

Nearby

Air Quality

  Air Quality AQ Index Pollutant
Not available.

Snow Depth

Station Depth Elevation

Earthquake Activity

City Distance Mag. Time & Date
Minimum magnitude displayed is 2.5.

Coastal Water Temperatures

Place Temperature

Stations

Nearby Weather Stations

Station Location Temp. Windchill Dew Point Humidity Wind Precip. Elev Updated Type
                   

Watches & Warnings

There are currently no watches in effect.